OIZI  Iran Shahr Airport

Add Bookmark

Iran

Status
Operational
Latitude Longitude
27° 14' 9" N 60° 43' 12" E
27.236099 60.720001
Local (DST + 5) UTC (GMT + 4)
Oct 31, 2014 10:39 Oct 31, 2014 19:09
Sunrise-Sunset Local UTC
Begin Civil Twilight 05:11 01:41
Sunrise 05:35 02:05
Sunset 04:45 13:15
End Civil Twilight 05:09 13:39

Current Weather

METAR Observed VFR
OIZI 311800Z 00000KT CAVOK 21/05 Q1016 Fri, Oct 31, 2014 @ 18:00 UTC
(1 Hour, 9 Minutes ago)
Visual Flight Rules
Wind Visibility Clouds Conditions
Calm 10 km or more
  • Clear skies
  • No significant weather
Temperatures Readings Precipitation
Current Temp 21°C (70°F)
Dewpoint 5°C (41°F)
Humidity 35%
Altimeter 30"Hg
Sea Level Pressure 1016mb
Field Elevation 1938.98'
None Recorded

24 Hour Weather History

Loading
-

24 Hour Weather Graphs

Loading
-

CheckWX.com is intended as a tool to help pilots better visualize weather data. It is not intended as a substitute for an official weather briefing obtained from a Flight Service Station. CheckWX.com does not meet the FAA requirements for an official pre-flight weather briefing. Therefore, it's important that pilots still call and obtain an official FSS pre-flight weather briefing.